sensor_id;sensor_type;location;lat;lon;timestamp;P1;durP1;ratioP1;P2;durP2;ratioP2
12650;SDS011;6390;49.400;8.670;2023-08-06T03:32:46;1.73;;;1.40;;
12650;SDS011;6390;49.400;8.670;2023-08-06T03:35:12;2.20;;;1.20;;
12650;SDS011;6390;49.400;8.670;2023-08-06T03:37:39;1.17;;;1.08;;
12650;SDS011;6390;49.400;8.670;2023-08-06T03:40:05;2.08;;;1.27;;
12650;SDS011;6390;49.400;8.670;2023-08-06T03:42:32;2.17;;;1.33;;
12650;SDS011;6390;49.400;8.670;2023-08-06T03:44:58;1.30;;;1.20;;
12650;SDS011;6390;49.400;8.670;2023-08-06T03:47:24;1.30;;;1.20;;
12650;SDS011;6390;49.400;8.670;2023-08-06T03:49:50;1.50;;;1.17;;
12650;SDS011;6390;49.400;8.670;2023-08-06T03:52:16;2.58;;;1.00;;
12650;SDS011;6390;49.400;8.670;2023-08-06T03:54:42;1.50;;;1.15;;
12650;SDS011;6390;49.400;8.670;2023-08-06T03:59:04;1.25;;;1.15;;
12650;SDS011;6390;49.400;8.670;2023-08-06T04:01:30;1.50;;;1.30;;
12650;SDS011;6390;49.400;8.670;2023-08-06T04:03:57;1.65;;;1.10;;
12650;SDS011;6390;49.400;8.670;2023-08-06T04:06:23;1.98;;;1.00;;
12650;SDS011;6390;49.400;8.670;2023-08-06T04:08:49;1.02;;;0.93;;
12650;SDS011;6390;49.400;8.670;2023-08-06T04:11:15;1.10;;;1.00;;
12650;SDS011;6390;49.400;8.670;2023-08-06T04:13:44;1.33;;;1.00;;
12650;SDS011;6390;49.400;8.670;2023-08-06T04:16:10;1.13;;;1.00;;
12650;SDS011;6390;49.400;8.670;2023-08-06T04:18:38;2.17;;;1.10;;
12650;SDS011;6390;49.400;8.670;2023-08-06T04:21:04;1.33;;;1.02;;
12650;SDS011;6390;49.400;8.670;2023-08-06T04:23:30;2.47;;;1.17;;
12650;SDS011;6390;49.400;8.670;2023-08-06T04:25:56;1.20;;;1.10;;
12650;SDS011;6390;49.400;8.670;2023-08-06T04:28:23;1.55;;;1.27;;
12650;SDS011;6390;49.400;8.670;2023-08-06T04:30:49;2.50;;;1.40;;
12650;SDS011;6390;49.400;8.670;2023-08-06T04:33:15;1.50;;;0.93;;
12650;SDS011;6390;49.400;8.670;2023-08-06T04:35:41;1.88;;;1.00;;
12650;SDS011;6390;49.400;8.670;2023-08-06T04:38:07;1.00;;;1.00;;
12650;SDS011;6390;49.400;8.670;2023-08-06T04:40:34;1.08;;;0.98;;
12650;SDS011;6390;49.400;8.670;2023-08-06T04:43:01;1.35;;;1.00;;
12650;SDS011;6390;49.400;8.670;2023-08-06T04:45:27;0.88;;;0.88;;
12650;SDS011;6390;49.400;8.670;2023-08-06T04:47:54;1.27;;;1.17;;
12650;SDS011;6390;49.400;8.670;2023-08-06T04:50:20;1.13;;;1.02;;
12650;SDS011;6390;49.400;8.670;2023-08-06T04:52:46;1.63;;;1.10;;
12650;SDS011;6390;49.400;8.670;2023-08-06T04:55:12;2.20;;;1.00;;
12650;SDS011;6390;49.400;8.670;2023-08-06T04:57:38;1.23;;;1.08;;
12650;SDS011;6390;49.400;8.670;2023-08-06T05:00:04;0.90;;;0.90;;
12650;SDS011;6390;49.400;8.670;2023-08-06T05:02:31;1.02;;;0.80;;
12650;SDS011;6390;49.400;8.670;2023-08-06T05:04:59;1.00;;;0.90;;
12650;SDS011;6390;49.400;8.670;2023-08-06T05:07:25;0.88;;;0.85;;
12650;SDS011;6390;49.400;8.670;2023-08-06T05:09:51;0.95;;;0.80;;
12650;SDS011;6390;49.400;8.670;2023-08-06T05:12:18;1.42;;;1.05;;
12650;SDS011;6390;49.400;8.670;2023-08-06T05:14:44;0.68;;;0.65;;
12650;SDS011;6390;49.400;8.670;2023-08-06T05:17:10;1.05;;;0.95;;
12650;SDS011;6390;49.400;8.670;2023-08-06T05:19:37;2.38;;;0.70;;
12650;SDS011;6390;49.400;8.670;2023-08-06T05:22:03;0.73;;;0.73;;
12650;SDS011;6390;49.400;8.670;2023-08-06T05:24:29;0.52;;;0.52;;
12650;SDS011;6390;49.400;8.670;2023-08-06T05:26:55;1.13;;;0.80;;
12650;SDS011;6390;49.400;8.670;2023-08-06T05:29:22;0.75;;;0.63;;
12650;SDS011;6390;49.400;8.670;2023-08-06T05:31:48;0.75;;;0.65;;
12650;SDS011;6390;49.400;8.670;2023-08-06T05:34:14;0.65;;;0.55;;
12650;SDS011;6390;49.400;8.670;2023-08-06T05:36:40;0.40;;;0.40;;
12650;SDS011;6390;49.400;8.670;2023-08-06T05:39:06;1.35;;;0.68;;
12650;SDS011;6390;49.400;8.670;2023-08-06T05:41:32;0.60;;;0.60;;
12650;SDS011;6390;49.400;8.670;2023-08-06T05:43:58;0.73;;;0.70;;
12650;SDS011;6390;49.400;8.670;2023-08-06T05:46:24;2.47;;;0.80;;
12650;SDS011;6390;49.400;8.670;2023-08-06T05:48:50;0.95;;;0.68;;
12650;SDS011;6390;49.400;8.670;2023-08-06T05:51:16;0.50;;;0.50;;
12650;SDS011;6390;49.400;8.670;2023-08-06T05:53:43;0.60;;;0.60;;
12650;SDS011;6390;49.400;8.670;2023-08-06T05:56:10;1.33;;;0.70;;
12650;SDS011;6390;49.400;8.670;2023-08-06T05:58:36;0.52;;;0.52;;
12650;SDS011;6390;49.400;8.670;2023-08-06T06:01:03;0.95;;;0.73;;
12650;SDS011;6390;49.400;8.670;2023-08-06T06:03:29;0.50;;;0.50;;
12650;SDS011;6390;49.400;8.670;2023-08-06T06:05:55;0.70;;;0.52;;
12650;SDS011;6390;49.400;8.670;2023-08-06T06:08:21;2.92;;;0.80;;
12650;SDS011;6390;49.400;8.670;2023-08-06T06:10:47;1.25;;;0.75;;
12650;SDS011;6390;49.400;8.670;2023-08-06T06:13:13;0.93;;;0.77;;
12650;SDS011;6390;49.400;8.670;2023-08-06T06:15:39;0.75;;;0.70;;
12650;SDS011;6390;49.400;8.670;2023-08-06T06:18:05;0.82;;;0.70;;
12650;SDS011;6390;49.400;8.670;2023-08-06T06:20:32;1.88;;;0.55;;
12650;SDS011;6390;49.400;8.670;2023-08-06T06:22:58;1.45;;;0.70;;
12650;SDS011;6390;49.400;8.670;2023-08-06T06:25:25;1.20;;;0.50;;
12650;SDS011;6390;49.400;8.670;2023-08-06T06:27:51;2.05;;;0.52;;
12650;SDS011;6390;49.400;8.670;2023-08-06T06:30:17;0.63;;;0.63;;
12650;SDS011;6390;49.400;8.670;2023-08-06T06:32:43;0.82;;;0.52;;
12650;SDS011;6390;49.400;8.670;2023-08-06T06:35:09;1.27;;;0.65;;
12650;SDS011;6390;49.400;8.670;2023-08-06T06:37:35;0.85;;;0.55;;
12650;SDS011;6390;49.400;8.670;2023-08-06T06:40:01;1.73;;;0.90;;
12650;SDS011;6390;49.400;8.670;2023-08-06T06:42:28;0.95;;;0.63;;
12650;SDS011;6390;49.400;8.670;2023-08-06T06:44:55;0.40;;;0.40;;
12650;SDS011;6390;49.400;8.670;2023-08-06T06:47:21;0.85;;;0.63;;
12650;SDS011;6390;49.400;8.670;2023-08-06T06:49:47;1.25;;;0.60;;
12650;SDS011;6390;49.400;8.670;2023-08-06T06:52:14;0.40;;;0.40;;
12650;SDS011;6390;49.400;8.670;2023-08-06T06:54:40;0.73;;;0.63;;
12650;SDS011;6390;49.400;8.670;2023-08-06T06:57:06;0.60;;;0.30;;
12650;SDS011;6390;49.400;8.670;2023-08-06T06:59:32;1.25;;;0.60;;
12650;SDS011;6390;49.400;8.670;2023-08-06T07:01:58;0.43;;;0.40;;
12650;SDS011;6390;49.400;8.670;2023-08-06T07:04:24;2.58;;;0.50;;
12650;SDS011;6390;49.400;8.670;2023-08-06T07:06:51;1.35;;;0.63;;
12650;SDS011;6390;49.400;8.670;2023-08-06T07:09:18;0.73;;;0.40;;
12650;SDS011;6390;49.400;8.670;2023-08-06T07:11:44;0.50;;;0.50;;
12650;SDS011;6390;49.400;8.670;2023-08-06T07:14:10;0.50;;;0.40;;
12650;SDS011;6390;49.400;8.670;2023-08-06T07:16:36;0.50;;;0.50;;
12650;SDS011;6390;49.400;8.670;2023-08-06T07:19:02;0.43;;;0.43;;
12650;SDS011;6390;49.400;8.670;2023-08-06T07:21:29;0.90;;;0.52;;
12650;SDS011;6390;49.400;8.670;2023-08-06T07:23:55;0.73;;;0.50;;
12650;SDS011;6390;49.400;8.670;2023-08-06T07:26:22;0.30;;;0.30;;
12650;SDS011;6390;49.400;8.670;2023-08-06T07:28:48;0.50;;;0.50;;
12650;SDS011;6390;49.400;8.670;2023-08-06T07:31:14;0.52;;;0.38;;
12650;SDS011;6390;49.400;8.670;2023-08-06T07:33:40;0.85;;;0.40;;
12650;SDS011;6390;49.400;8.670;2023-08-06T07:36:13;0.40;;;0.40;;
12650;SDS011;6390;49.400;8.670;2023-08-06T07:38:40;0.35;;;0.15;;
12650;SDS011;6390;49.400;8.670;2023-08-06T07:41:07;0.20;;;0.20;;
12650;SDS011;6390;49.400;8.670;2023-08-06T07:43:34;0.60;;;0.40;;
12650;SDS011;6390;49.400;8.670;2023-08-06T07:46:03;0.45;;;0.45;;
12650;SDS011;6390;49.400;8.670;2023-08-06T07:48:29;0.35;;;0.35;;
12650;SDS011;6390;49.400;8.670;2023-08-06T07:50:56;0.52;;;0.43;;
12650;SDS011;6390;49.400;8.670;2023-08-06T07:53:23;0.17;;;0.17;;
12650;SDS011;6390;49.400;8.670;2023-08-06T07:55:52;0.50;;;0.40;;
12650;SDS011;6390;49.400;8.670;2023-08-06T07:58:19;0.47;;;0.40;;
12650;SDS011;6390;49.400;8.670;2023-08-06T08:00:46;0.43;;;0.20;;
12650;SDS011;6390;49.400;8.670;2023-08-06T08:03:13;0.25;;;0.25;;
12650;SDS011;6390;49.400;8.670;2023-08-06T08:05:41;0.98;;;0.50;;
12650;SDS011;6390;49.400;8.670;2023-08-06T08:08:11;0.28;;;0.28;;
12650;SDS011;6390;49.400;8.670;2023-08-06T08:10:37;0.20;;;0.20;;
12650;SDS011;6390;49.400;8.670;2023-08-06T08:13:03;0.52;;;0.40;;
12650;SDS011;6390;49.400;8.670;2023-08-06T08:15:30;0.10;;;0.10;;
12650;SDS011;6390;49.400;8.670;2023-08-06T08:17:57;0.40;;;0.40;;
12650;SDS011;6390;49.400;8.670;2023-08-06T08:20:24;0.30;;;0.20;;
12650;SDS011;6390;49.400;8.670;2023-08-06T08:22:56;0.22;;;0.22;;
12650;SDS011;6390;49.400;8.670;2023-08-06T08:25:23;0.32;;;0.32;;
12650;SDS011;6390;49.400;8.670;2023-08-06T08:27:49;0.30;;;0.30;;
12650;SDS011;6390;49.400;8.670;2023-08-06T08:30:15;0.43;;;0.30;;
12650;SDS011;6390;49.400;8.670;2023-08-06T08:32:41;0.30;;;0.30;;
12650;SDS011;6390;49.400;8.670;2023-08-06T08:35:07;0.50;;;0.50;;
12650;SDS011;6390;49.400;8.670;2023-08-06T08:37:34;0.35;;;0.35;;
12650;SDS011;6390;49.400;8.670;2023-08-06T08:40:01;0.30;;;0.30;;
12650;SDS011;6390;49.400;8.670;2023-08-06T08:42:28;0.30;;;0.30;;
12650;SDS011;6390;49.400;8.670;2023-08-06T08:44:54;0.20;;;0.20;;
12650;SDS011;6390;49.400;8.670;2023-08-06T08:47:21;0.20;;;0.20;;
12650;SDS011;6390;49.400;8.670;2023-08-06T08:49:47;1.75;;;0.22;;
12650;SDS011;6390;49.400;8.670;2023-08-06T08:52:14;0.40;;;0.28;;
12650;SDS011;6390;49.400;8.670;2023-08-06T08:54:41;0.20;;;0.20;;
12650;SDS011;6390;49.400;8.670;2023-08-06T08:57:08;0.15;;;0.15;;
12650;SDS011;6390;49.400;8.670;2023-08-06T08:59:34;0.28;;;0.28;;
12650;SDS011;6390;49.400;8.670;2023-08-06T09:02:01;0.17;;;0.17;;
12650;SDS011;6390;49.400;8.670;2023-08-06T09:04:29;0.25;;;0.25;;
12650;SDS011;6390;49.400;8.670;2023-08-06T09:06:56;0.10;;;0.03;;
12650;SDS011;6390;49.400;8.670;2023-08-06T09:09:31;0.40;;;0.40;;
12650;SDS011;6390;49.400;8.670;2023-08-06T09:12:00;0.13;;;0.10;;
12650;SDS011;6390;49.400;8.670;2023-08-06T09:14:27;0.30;;;0.30;;
12650;SDS011;6390;49.400;8.670;2023-08-06T09:16:54;0.08;;;0.08;;
12650;SDS011;6390;49.400;8.670;2023-08-06T09:19:21;0.70;;;0.35;;
12650;SDS011;6390;49.400;8.670;2023-08-06T09:21:47;0.50;;;0.40;;
12650;SDS011;6390;49.400;8.670;2023-08-06T09:24:15;0.10;;;0.10;;
12650;SDS011;6390;49.400;8.670;2023-08-06T09:26:43;0.10;;;0.10;;
12650;SDS011;6390;49.400;8.670;2023-08-06T09:29:10;0.20;;;0.20;;
12650;SDS011;6390;49.400;8.670;2023-08-06T09:31:46;0.20;;;0.10;;
12650;SDS011;6390;49.400;8.670;2023-08-06T09:34:18;0.20;;;0.10;;
12650;SDS011;6390;49.400;8.670;2023-08-06T09:36:50;0.10;;;0.10;;
12650;SDS011;6390;49.400;8.670;2023-08-06T09:39:19;0.20;;;0.20;;
12650;SDS011;6390;49.400;8.670;2023-08-06T09:41:52;0.40;;;0.30;;
12650;SDS011;6390;49.400;8.670;2023-08-06T09:44:22;0.20;;;0.20;;
12650;SDS011;6390;49.400;8.670;2023-08-06T09:46:52;0.20;;;0.20;;
12650;SDS011;6390;49.400;8.670;2023-08-06T09:49:40;0.28;;;0.28;;
12650;SDS011;6390;49.400;8.670;2023-08-06T09:52:11;0.20;;;0.20;;
12650;SDS011;6390;49.400;8.670;2023-08-06T09:54:38;0.32;;;0.25;;
12650;SDS011;6390;49.400;8.670;2023-08-06T09:57:05;0.10;;;0.10;;
12650;SDS011;6390;49.400;8.670;2023-08-06T09:59:32;0.20;;;0.20;;
12650;SDS011;6390;49.400;8.670;2023-08-06T10:01:59;0.10;;;0.10;;
12650;SDS011;6390;49.400;8.670;2023-08-06T10:04:25;0.30;;;0.30;;
12650;SDS011;6390;49.400;8.670;2023-08-06T10:06:51;0.00;;;0.00;;
12650;SDS011;6390;49.400;8.670;2023-08-06T10:09:18;0.03;;;0.03;;
12650;SDS011;6390;49.400;8.670;2023-08-06T10:11:48;0.30;;;0.30;;
12650;SDS011;6390;49.400;8.670;2023-08-06T10:14:20;0.93;;;0.17;;
12650;SDS011;6390;49.400;8.670;2023-08-06T10:16:53;0.10;;;0.10;;
12650;SDS011;6390;49.400;8.670;2023-08-06T10:19:21;0.20;;;0.20;;
12650;SDS011;6390;49.400;8.670;2023-08-06T10:27:23;0.13;;;0.13;;
12650;SDS011;6390;49.400;8.670;2023-08-06T10:33:02;0.00;;;0.00;;
12650;SDS011;6390;49.400;8.670;2023-08-06T10:35:29;1.15;;;0.20;;
12650;SDS011;6390;49.400;8.670;2023-08-06T10:38:21;0.00;;;0.00;;
12650;SDS011;6390;49.400;8.670;2023-08-06T10:43:33;0.40;;;0.40;;
12650;SDS011;6390;49.400;8.670;2023-08-06T10:46:03;0.20;;;0.20;;
12650;SDS011;6390;49.400;8.670;2023-08-06T10:48:37;0.20;;;0.20;;
12650;SDS011;6390;49.400;8.670;2023-08-06T10:51:07;0.15;;;0.15;;
12650;SDS011;6390;49.400;8.670;2023-08-06T10:53:36;0.17;;;0.17;;
12650;SDS011;6390;49.400;8.670;2023-08-06T10:56:27;0.20;;;0.20;;
12650;SDS011;6390;49.400;8.670;2023-08-06T10:58:54;0.03;;;0.03;;
12650;SDS011;6390;49.400;8.670;2023-08-06T11:01:22;0.22;;;0.22;;
12650;SDS011;6390;49.400;8.670;2023-08-06T11:03:49;0.15;;;0.15;;
12650;SDS011;6390;49.400;8.670;2023-08-06T11:06:22;0.25;;;0.25;;
12650;SDS011;6390;49.400;8.670;2023-08-06T11:08:50;0.30;;;0.30;;
12650;SDS011;6390;49.400;8.670;2023-08-06T11:11:18;0.30;;;0.30;;
12650;SDS011;6390;49.400;8.670;2023-08-06T11:13:46;0.40;;;0.40;;
12650;SDS011;6390;49.400;8.670;2023-08-06T11:16:14;0.77;;;0.40;;
12650;SDS011;6390;49.400;8.670;2023-08-06T11:18:42;0.30;;;0.30;;
12650;SDS011;6390;49.400;8.670;2023-08-06T11:21:09;0.40;;;0.40;;
12650;SDS011;6390;49.400;8.670;2023-08-06T11:23:36;0.50;;;0.50;;
12650;SDS011;6390;49.400;8.670;2023-08-06T11:26:03;0.30;;;0.30;;
12650;SDS011;6390;49.400;8.670;2023-08-06T11:28:30;0.30;;;0.30;;
12650;SDS011;6390;49.400;8.670;2023-08-06T11:30:56;0.30;;;0.30;;
12650;SDS011;6390;49.400;8.670;2023-08-06T11:33:26;0.28;;;0.28;;
12650;SDS011;6390;49.400;8.670;2023-08-06T11:35:56;0.20;;;0.20;;
12650;SDS011;6390;49.400;8.670;2023-08-06T11:38:25;0.98;;;0.50;;
12650;SDS011;6390;49.400;8.670;2023-08-06T11:40:54;0.30;;;0.30;;
12650;SDS011;6390;49.400;8.670;2023-08-06T11:43:21;1.27;;;0.45;;
12650;SDS011;6390;49.400;8.670;2023-08-06T11:45:48;0.52;;;0.52;;
12650;SDS011;6390;49.400;8.670;2023-08-06T11:48:15;0.43;;;0.43;;
12650;SDS011;6390;49.400;8.670;2023-08-06T11:50:43;0.30;;;0.30;;
12650;SDS011;6390;49.400;8.670;2023-08-06T11:53:11;0.40;;;0.30;;
12650;SDS011;6390;49.400;8.670;2023-08-06T11:55:39;0.30;;;0.30;;
12650;SDS011;6390;49.400;8.670;2023-08-06T11:58:05;1.70;;;0.50;;
12650;SDS011;6390;49.400;8.670;2023-08-06T12:00:32;0.60;;;0.60;;
12650;SDS011;6390;49.400;8.670;2023-08-06T12:02:58;0.50;;;0.50;;
12650;SDS011;6390;49.400;8.670;2023-08-06T12:05:31;0.50;;;0.50;;
12650;SDS011;6390;49.400;8.670;2023-08-06T12:07:59;0.57;;;0.57;;
12650;SDS011;6390;49.400;8.670;2023-08-06T12:10:28;0.43;;;0.38;;
12650;SDS011;6390;49.400;8.670;2023-08-06T12:12:55;1.17;;;0.95;;
12650;SDS011;6390;49.400;8.670;2023-08-06T12:15:22;0.75;;;0.75;;
12650;SDS011;6390;49.400;8.670;2023-08-06T12:17:49;0.50;;;0.50;;
12650;SDS011;6390;49.400;8.670;2023-08-06T12:20:15;0.43;;;0.43;;
12650;SDS011;6390;49.400;8.670;2023-08-06T12:22:41;0.40;;;0.40;;
12650;SDS011;6390;49.400;8.670;2023-08-06T12:25:09;0.85;;;0.73;;
12650;SDS011;6390;49.400;8.670;2023-08-06T12:27:40;0.88;;;0.77;;
12650;SDS011;6390;49.400;8.670;2023-08-06T12:30:07;0.68;;;0.60;;
12650;SDS011;6390;49.400;8.670;2023-08-06T12:32:34;0.60;;;0.60;;
12650;SDS011;6390;49.400;8.670;2023-08-06T12:35:01;0.43;;;0.38;;
12650;SDS011;6390;49.400;8.670;2023-08-06T12:37:28;0.52;;;0.50;;
12650;SDS011;6390;49.400;8.670;2023-08-06T12:39:54;0.60;;;0.60;;
12650;SDS011;6390;49.400;8.670;2023-08-06T12:42:20;1.85;;;0.55;;
12650;SDS011;6390;49.400;8.670;2023-08-06T12:44:50;0.40;;;0.40;;
12650;SDS011;6390;49.400;8.670;2023-08-06T12:47:16;0.70;;;0.50;;
12650;SDS011;6390;49.400;8.670;2023-08-06T12:49:43;0.70;;;0.70;;
12650;SDS011;6390;49.400;8.670;2023-08-06T12:52:09;0.80;;;0.80;;
12650;SDS011;6390;49.400;8.670;2023-08-06T12:54:37;0.60;;;0.60;;
12650;SDS011;6390;49.400;8.670;2023-08-06T12:57:04;0.60;;;0.60;;
12650;SDS011;6390;49.400;8.670;2023-08-06T12:59:31;0.70;;;0.60;;
12650;SDS011;6390;49.400;8.670;2023-08-06T13:01:58;0.68;;;0.68;;
12650;SDS011;6390;49.400;8.670;2023-08-06T13:04:25;0.50;;;0.50;;
12650;SDS011;6390;49.400;8.670;2023-08-06T13:06:51;0.60;;;0.60;;
12650;SDS011;6390;49.400;8.670;2023-08-06T13:09:17;0.63;;;0.63;;
12650;SDS011;6390;49.400;8.670;2023-08-06T13:11:43;0.47;;;0.47;;
12650;SDS011;6390;49.400;8.670;2023-08-06T13:14:11;0.88;;;0.43;;
12650;SDS011;6390;49.400;8.670;2023-08-06T13:16:39;0.52;;;0.52;;
12650;SDS011;6390;49.400;8.670;2023-08-06T13:19:07;0.40;;;0.40;;
12650;SDS011;6390;49.400;8.670;2023-08-06T13:21:35;0.60;;;0.60;;
12650;SDS011;6390;49.400;8.670;2023-08-06T13:24:17;0.30;;;0.30;;
12650;SDS011;6390;49.400;8.670;2023-08-06T13:26:44;0.38;;;0.38;;
12650;SDS011;6390;49.400;8.670;2023-08-06T13:29:10;0.68;;;0.57;;
12650;SDS011;6390;49.400;8.670;2023-08-06T13:31:36;0.30;;;0.28;;
12650;SDS011;6390;49.400;8.670;2023-08-06T13:34:03;0.32;;;0.32;;
12650;SDS011;6390;49.400;8.670;2023-08-06T13:36:29;0.55;;;0.43;;
12650;SDS011;6390;49.400;8.670;2023-08-06T13:38:56;0.30;;;0.30;;
12650;SDS011;6390;49.400;8.670;2023-08-06T13:41:22;0.52;;;0.50;;
12650;SDS011;6390;49.400;8.670;2023-08-06T13:43:49;0.88;;;0.32;;
12650;SDS011;6390;49.400;8.670;2023-08-06T13:46:15;0.40;;;0.30;;
12650;SDS011;6390;49.400;8.670;2023-08-06T13:48:44;0.30;;;0.30;;
12650;SDS011;6390;49.400;8.670;2023-08-06T13:51:12;0.60;;;0.60;;
12650;SDS011;6390;49.400;8.670;2023-08-06T13:53:39;0.50;;;0.45;;
12650;SDS011;6390;49.400;8.670;2023-08-06T13:56:06;0.52;;;0.50;;
12650;SDS011;6390;49.400;8.670;2023-08-06T13:58:35;0.50;;;0.50;;
12650;SDS011;6390;49.400;8.670;2023-08-06T14:01:01;0.47;;;0.47;;
12650;SDS011;6390;49.400;8.670;2023-08-06T14:03:27;0.75;;;0.40;;
12650;SDS011;6390;49.400;8.670;2023-08-06T14:05:53;0.22;;;0.22;;
12650;SDS011;6390;49.400;8.670;2023-08-06T14:08:23;0.25;;;0.25;;
12650;SDS011;6390;49.400;8.670;2023-08-06T14:10:50;0.30;;;0.25;;
12650;SDS011;6390;49.400;8.670;2023-08-06T14:13:17;0.30;;;0.30;;
12650;SDS011;6390;49.400;8.670;2023-08-06T14:15:44;0.43;;;0.43;;
12650;SDS011;6390;49.400;8.670;2023-08-06T14:18:12;0.80;;;0.60;;
12650;SDS011;6390;49.400;8.670;2023-08-06T14:20:39;0.60;;;0.40;;
12650;SDS011;6390;49.400;8.670;2023-08-06T14:23:06;0.90;;;0.30;;
12650;SDS011;6390;49.400;8.670;2023-08-06T14:25:33;0.52;;;0.50;;
12650;SDS011;6390;49.400;8.670;2023-08-06T14:27:59;0.52;;;0.50;;
12650;SDS011;6390;49.400;8.670;2023-08-06T14:30:25;0.40;;;0.40;;
12650;SDS011;6390;49.400;8.670;2023-08-06T14:32:51;0.50;;;0.50;;
12650;SDS011;6390;49.400;8.670;2023-08-06T14:35:17;0.40;;;0.40;;
12650;SDS011;6390;49.400;8.670;2023-08-06T14:37:43;0.70;;;0.60;;
12650;SDS011;6390;49.400;8.670;2023-08-06T14:40:10;0.43;;;0.35;;
12650;SDS011;6390;49.400;8.670;2023-08-06T14:42:37;0.32;;;0.32;;
12650;SDS011;6390;49.400;8.670;2023-08-06T14:45:03;0.47;;;0.47;;
12650;SDS011;6390;49.400;8.670;2023-08-06T14:47:30;0.55;;;0.47;;
12650;SDS011;6390;49.400;8.670;2023-08-06T14:49:56;0.90;;;0.50;;
12650;SDS011;6390;49.400;8.670;2023-08-06T14:52:22;0.77;;;0.70;;
12650;SDS011;6390;49.400;8.670;2023-08-06T14:54:49;0.82;;;0.50;;
12650;SDS011;6390;49.400;8.670;2023-08-06T14:57:17;0.50;;;0.50;;
12650;SDS011;6390;49.400;8.670;2023-08-06T14:59:43;0.70;;;0.70;;
12650;SDS011;6390;49.400;8.670;2023-08-06T15:02:09;0.47;;;0.40;;
12650;SDS011;6390;49.400;8.670;2023-08-06T15:04:35;0.57;;;0.55;;
12650;SDS011;6390;49.400;8.670;2023-08-06T15:07:02;0.45;;;0.45;;
12650;SDS011;6390;49.400;8.670;2023-08-06T15:09:28;0.80;;;0.40;;
12650;SDS011;6390;49.400;8.670;2023-08-06T15:11:54;0.50;;;0.50;;
12650;SDS011;6390;49.400;8.670;2023-08-06T15:14:20;0.40;;;0.40;;
12650;SDS011;6390;49.400;8.670;2023-08-06T15:16:47;0.55;;;0.55;;
12650;SDS011;6390;49.400;8.670;2023-08-06T15:19:13;0.55;;;0.55;;
12650;SDS011;6390;49.400;8.670;2023-08-06T15:21:39;0.63;;;0.63;;
12650;SDS011;6390;49.400;8.670;2023-08-06T15:24:05;0.75;;;0.40;;
12650;SDS011;6390;49.400;8.670;2023-08-06T15:26:31;0.45;;;0.45;;
12650;SDS011;6390;49.400;8.670;2023-08-06T15:28:59;0.30;;;0.30;;
12650;SDS011;6390;49.400;8.670;2023-08-06T15:31:25;0.00;;;0.00;;
12650;SDS011;6390;49.400;8.670;2023-08-06T15:34:03;0.32;;;0.32;;
12650;SDS011;6390;49.400;8.670;2023-08-06T15:36:31;0.60;;;0.60;;
12650;SDS011;6390;49.400;8.670;2023-08-06T15:38:58;0.40;;;0.40;;
12650;SDS011;6390;49.400;8.670;2023-08-06T15:41:25;0.30;;;0.30;;
12650;SDS011;6390;49.400;8.670;2023-08-06T15:43:51;0.40;;;0.40;;
12650;SDS011;6390;49.400;8.670;2023-08-06T15:46:17;0.55;;;0.30;;
12650;SDS011;6390;49.400;8.670;2023-08-06T15:48:43;0.40;;;0.30;;
12650;SDS011;6390;49.400;8.670;2023-08-06T15:51:10;0.40;;;0.40;;
12650;SDS011;6390;49.400;8.670;2023-08-06T15:53:36;0.45;;;0.32;;
12650;SDS011;6390;49.400;8.670;2023-08-06T15:56:02;0.98;;;0.60;;
12650;SDS011;6390;49.400;8.670;2023-08-06T15:58:30;0.30;;;0.30;;
12650;SDS011;6390;49.400;8.670;2023-08-06T16:00:57;0.35;;;0.35;;
12650;SDS011;6390;49.400;8.670;2023-08-06T16:03:23;0.35;;;0.35;;
12650;SDS011;6390;49.400;8.670;2023-08-06T16:05:49;0.30;;;0.30;;
12650;SDS011;6390;49.400;8.670;2023-08-06T16:08:15;0.38;;;0.38;;
12650;SDS011;6390;49.400;8.670;2023-08-06T16:10:41;0.63;;;0.63;;
12650;SDS011;6390;49.400;8.670;2023-08-06T16:13:09;0.50;;;0.50;;
12650;SDS011;6390;49.400;8.670;2023-08-06T16:15:36;0.47;;;0.47;;
12650;SDS011;6390;49.400;8.670;2023-08-06T16:18:02;0.45;;;0.45;;
12650;SDS011;6390;49.400;8.670;2023-08-06T16:20:28;0.22;;;0.22;;
12650;SDS011;6390;49.400;8.670;2023-08-06T16:22:55;0.50;;;0.50;;
12650;SDS011;6390;49.400;8.670;2023-08-06T16:25:22;0.40;;;0.40;;
12650;SDS011;6390;49.400;8.670;2023-08-06T16:27:48;0.40;;;0.28;;
12650;SDS011;6390;49.400;8.670;2023-08-06T16:30:14;0.30;;;0.30;;
12650;SDS011;6390;49.400;8.670;2023-08-06T16:32:41;0.40;;;0.40;;
12650;SDS011;6390;49.400;8.670;2023-08-06T16:35:08;0.30;;;0.30;;
12650;SDS011;6390;49.400;8.670;2023-08-06T16:37:35;0.40;;;0.40;;
12650;SDS011;6390;49.400;8.670;2023-08-06T16:40:03;0.35;;;0.35;;
12650;SDS011;6390;49.400;8.670;2023-08-06T16:42:30;0.50;;;0.50;;
12650;SDS011;6390;49.400;8.670;2023-08-06T16:44:56;0.82;;;0.52;;
12650;SDS011;6390;49.400;8.670;2023-08-06T16:47:22;0.40;;;0.40;;
12650;SDS011;6390;49.400;8.670;2023-08-06T16:49:48;0.85;;;0.80;;
12650;SDS011;6390;49.400;8.670;2023-08-06T16:52:14;0.52;;;0.45;;
12650;SDS011;6390;49.400;8.670;2023-08-06T16:54:42;0.95;;;0.40;;
12650;SDS011;6390;49.400;8.670;2023-08-06T16:57:08;0.30;;;0.30;;
12650;SDS011;6390;49.400;8.670;2023-08-06T16:59:34;0.40;;;0.40;;
12650;SDS011;6390;49.400;8.670;2023-08-06T17:02:00;0.57;;;0.50;;
12650;SDS011;6390;49.400;8.670;2023-08-06T17:04:26;1.00;;;0.57;;
12650;SDS011;6390;49.400;8.670;2023-08-06T17:06:52;0.95;;;0.60;;
12650;SDS011;6390;49.400;8.670;2023-08-06T17:09:18;0.57;;;0.57;;
12650;SDS011;6390;49.400;8.670;2023-08-06T17:11:44;0.40;;;0.40;;
12650;SDS011;6390;49.400;8.670;2023-08-06T17:14:10;0.57;;;0.52;;
12650;SDS011;6390;49.400;8.670;2023-08-06T17:16:36;0.50;;;0.50;;
12650;SDS011;6390;49.400;8.670;2023-08-06T17:19:03;0.43;;;0.43;;
12650;SDS011;6390;49.400;8.670;2023-08-06T17:21:29;1.90;;;0.60;;
12650;SDS011;6390;49.400;8.670;2023-08-06T17:23:55;0.77;;;0.60;;
12650;SDS011;6390;49.400;8.670;2023-08-06T17:26:21;0.52;;;0.45;;
12650;SDS011;6390;49.400;8.670;2023-08-06T17:28:47;0.55;;;0.55;;
12650;SDS011;6390;49.400;8.670;2023-08-06T17:31:14;0.60;;;0.57;;
12650;SDS011;6390;49.400;8.670;2023-08-06T17:33:40;1.05;;;0.75;;
12650;SDS011;6390;49.400;8.670;2023-08-06T17:36:06;0.70;;;0.70;;
12650;SDS011;6390;49.400;8.670;2023-08-06T17:38:32;2.60;;;0.80;;
12650;SDS011;6390;49.400;8.670;2023-08-06T17:40:59;0.60;;;0.60;;
12650;SDS011;6390;49.400;8.670;2023-08-06T17:43:27;0.93;;;0.88;;
12650;SDS011;6390;49.400;8.670;2023-08-06T17:45:53;0.60;;;0.55;;
12650;SDS011;6390;49.400;8.670;2023-08-06T17:48:19;0.60;;;0.40;;
12650;SDS011;6390;49.400;8.670;2023-08-06T17:50:46;0.88;;;0.70;;
12650;SDS011;6390;49.400;8.670;2023-08-06T17:53:12;0.50;;;0.50;;
12650;SDS011;6390;49.400;8.670;2023-08-06T17:55:39;0.70;;;0.60;;
12650;SDS011;6390;49.400;8.670;2023-08-06T17:58:05;0.50;;;0.50;;
12650;SDS011;6390;49.400;8.670;2023-08-06T18:00:31;0.47;;;0.47;;
12650;SDS011;6390;49.400;8.670;2023-08-06T18:02:58;1.23;;;0.50;;
12650;SDS011;6390;49.400;8.670;2023-08-06T18:05:24;0.63;;;0.63;;
12650;SDS011;6390;49.400;8.670;2023-08-06T18:07:50;1.10;;;0.70;;
12650;SDS011;6390;49.400;8.670;2023-08-06T18:10:17;0.40;;;0.40;;
12650;SDS011;6390;49.400;8.670;2023-08-06T18:12:43;0.47;;;0.47;;
12650;SDS011;6390;49.400;8.670;2023-08-06T18:15:09;0.47;;;0.47;;
12650;SDS011;6390;49.400;8.670;2023-08-06T18:17:36;0.90;;;0.77;;
12650;SDS011;6390;49.400;8.670;2023-08-06T18:20:04;0.82;;;0.65;;
12650;SDS011;6390;49.400;8.670;2023-08-06T18:22:31;1.92;;;0.85;;
12650;SDS011;6390;49.400;8.670;2023-08-06T18:24:58;1.02;;;0.80;;
12650;SDS011;6390;49.400;8.670;2023-08-06T18:27:27;1.00;;;0.85;;
12650;SDS011;6390;49.400;8.670;2023-08-06T18:29:53;0.50;;;0.50;;
12650;SDS011;6390;49.400;8.670;2023-08-06T18:32:19;0.93;;;0.80;;
12650;SDS011;6390;49.400;8.670;2023-08-06T18:34:45;0.68;;;0.50;;
12650;SDS011;6390;49.400;8.670;2023-08-06T18:37:12;1.55;;;0.63;;
12650;SDS011;6390;49.400;8.670;2023-08-06T18:39:39;1.35;;;0.90;;
12650;SDS011;6390;49.400;8.670;2023-08-06T18:42:07;0.70;;;0.70;;
12650;SDS011;6390;49.400;8.670;2023-08-06T18:44:33;0.70;;;0.70;;